Time;durP1;ratioP1;P1;durP2;ratioP2;P2;SDS_P1;SDS_P2;PMS_P1;PMS_P2;Temp;Humidity;BMP_temperature;BMP_pressure;BME280_temperature;BME280_humidity;BME280_pressure;Samples;Min_cycle;Max_cycle;Signal;HPM_P1;HPM_P2
2021/11/16 00:02:23;;;;;;;3.28;1.55;;;;;20.50;100254.00;;;;5086769;28;20036;-74
2021/11/16 00:04:52;;;;;;;0.73;0.73;;;;;20.50;100233.00;;;;5086407;28;20419;-75
2021/11/16 00:07:23;;;;;;;7.72;1.48;;;;;20.50;100244.00;;;;5086391;28;20056;-75
2021/11/16 00:09:53;;;;;;;7.07;0.98;;;;;20.40;100238.00;;;;5086903;28;20051;-73
2021/11/16 00:12:22;;;;;;;0.00;0.00;;;;;20.40;100244.00;;;;5086307;28;20058;-73
2021/11/16 00:14:53;;;;;;;7.68;1.98;;;;;20.40;100248.00;;;;5086332;28;20055;-75
2021/11/16 00:17:22;;;;;;;0.65;0.55;;;;;20.30;100255.00;;;;5085127;28;20052;-76
2021/11/16 00:19:52;;;;;;;0.00;0.00;;;;;20.30;100252.00;;;;5085715;28;20491;-74
2021/11/16 00:22:22;;;;;;;0.00;0.00;;;;;20.20;100258.00;;;;5094157;28;20036;-73
2021/11/16 00:27:35;;;;;;;0.30;0.30;;;;;20.30;100244.00;;;;5085803;28;20290;-73
2021/11/16 00:30:07;;;;;;;8.02;1.10;;;;;20.30;100230.00;;;;5090380;28;20039;-75
2021/11/16 00:32:37;;;;;;;0.00;0.00;;;;;20.30;100250.00;;;;5095363;28;20048;-77
2021/11/16 00:35:08;;;;;;;4.40;1.02;;;;;20.20;100239.00;;;;5094702;28;20428;-75
2021/11/16 00:37:39;;;;;;;0.00;0.00;;;;;20.20;100231.00;;;;5097962;28;20394;-76
2021/11/16 00:40:16;;;;;;;0.63;0.43;;;;;20.20;100262.00;;;;5106114;28;20391;-74
2021/11/16 00:42:49;;;;;;;0.00;0.00;;;;;20.20;100250.00;;;;5100120;28;20060;-77
2021/11/16 00:45:19;;;;;;;0.00;0.00;;;;;20.40;100265.00;;;;5095014;28;20436;-76
2021/11/16 00:47:48;;;;;;;0.45;0.45;;;;;20.50;100251.00;;;;5094563;28;20447;-74
2021/11/16 00:50:18;;;;;;;0.73;0.10;;;;;20.60;100250.00;;;;5094801;28;20044;-74
2021/11/16 00:52:48;;;;;;;0.00;0.00;;;;;20.70;100232.00;;;;5095460;28;20059;-75
2021/11/16 00:55:17;;;;;;;0.00;0.00;;;;;20.70;100248.00;;;;5093983;28;20051;-75
2021/11/16 00:57:47;;;;;;;0.25;0.25;;;;;20.80;100259.00;;;;5095094;28;20050;-75
2021/11/16 01:00:17;;;;;;;2.90;0.47;;;;;20.90;100259.00;;;;5093361;28;20099;-74
2021/11/16 01:02:50;;;;;;;0.13;0.13;;;;;21.00;100241.00;;;;5085751;28;20085;-75
2021/11/16 01:05:20;;;;;;;0.30;0.30;;;;;21.00;100269.00;;;;5085741;28;20460;-75
2021/11/16 01:07:49;;;;;;;0.10;0.10;;;;;21.00;100256.00;;;;5085658;28;20753;-73
2021/11/16 01:10:21;;;;;;;0.00;0.00;;;;;21.00;100249.00;;;;5088869;28;20506;-74
2021/11/16 01:12:51;;;;;;;0.00;0.00;;;;;21.10;100270.00;;;;5089581;28;20044;-74
2021/11/16 01:15:21;;;;;;;0.00;0.00;;;;;21.10;100263.00;;;;5089495;28;20044;-75
2021/11/16 01:17:51;;;;;;;0.00;0.00;;;;;21.20;100250.00;;;;5071782;28;20047;-75
2021/11/16 01:20:22;;;;;;;0.00;0.00;;;;;21.20;100251.00;;;;5089654;28;20071;-76
2021/11/16 01:22:55;;;;;;;0.00;0.00;;;;;21.30;100264.00;;;;5090275;28;20055;-76
2021/11/16 01:25:26;;;;;;;0.00;0.00;;;;;21.40;100259.00;;;;5089949;28;20044;-76
2021/11/16 01:27:58;;;;;;;0.00;0.00;;;;;21.50;100255.00;;;;5089489;28;20052;-77
2021/11/16 01:30:32;;;;;;;0.00;0.00;;;;;21.50;100270.00;;;;5088775;28;20044;-75
2021/11/16 01:35:38;;;;;;;0.00;0.00;;;;;21.60;100265.00;;;;5089277;28;20565;-75
2021/11/16 01:38:09;;;;;;;;;;;;;21.60;100264.00;;;;5089855;28;20123;-74
2021/11/16 01:40:41;;;;;;;0.20;0.20;;;;;21.60;100249.00;;;;5088974;28;20029;-76
2021/11/16 01:43:11;;;;;;;0.55;0.20;;;;;21.60;100256.00;;;;5088552;28;20065;-75
2021/11/16 01:46:04;;;;;;;0.00;0.00;;;;;21.60;100253.00;;;;5089764;28;20040;-75
2021/11/16 01:48:34;;;;;;;0.10;0.10;;;;;21.50;100246.00;;;;5089519;28;20410;-76
2021/11/16 01:51:04;;;;;;;0.43;0.40;;;;;21.40;100258.00;;;;5088817;28;20114;-75
2021/11/16 01:53:35;;;;;;;0.00;0.00;;;;;21.30;100246.00;;;;5089245;28;20044;-77
2021/11/16 01:56:06;;;;;;;0.80;0.73;;;;;21.20;100241.00;;;;5088297;28;20495;-75
2021/11/16 01:58:38;;;;;;;4.40;0.30;;;;;21.10;100236.00;;;;5088631;28;20044;-75
2021/11/16 02:01:08;;;;;;;1.40;1.30;;;;;21.10;100237.00;;;;5088476;28;20048;-76
2021/11/16 02:03:38;;;;;;;0.00;0.00;;;;;21.10;100245.00;;;;5088955;28;20071;-75
2021/11/16 02:06:19;;;;;;;0.10;0.10;;;;;21.00;100245.00;;;;5088828;28;20071;-76
2021/11/16 02:08:51;;;;;;;0.22;0.20;;;;;20.90;100258.00;;;;5089487;28;20050;-74
2021/11/16 02:11:21;;;;;;;0.00;0.00;;;;;20.80;100249.00;;;;5088546;28;20056;-75
2021/11/16 02:13:52;;;;;;;2.83;0.20;;;;;20.90;100244.00;;;;5088409;28;20457;-75
2021/11/16 02:16:21;;;;;;;0.38;0.15;;;;;20.90;100228.00;;;;5088652;28;20055;-75
2021/11/16 02:18:51;;;;;;;0.40;0.40;;;;;20.90;100244.00;;;;5088523;28;20081;-75
2021/11/16 02:21:21;;;;;;;1.17;0.68;;;;;20.70;100244.00;;;;5088328;28;20080;-75
2021/11/16 02:23:51;;;;;;;0.30;0.30;;;;;20.70;100256.00;;;;5070731;28;20044;-75
2021/11/16 02:26:20;;;;;;;0.08;0.08;;;;;20.60;100233.00;;;;5088322;28;20445;-76
2021/11/16 02:28:50;;;;;;;0.00;0.00;;;;;20.50;100240.00;;;;5088768;28;20071;-75
2021/11/16 02:31:20;;;;;;;1.08;0.75;;;;;20.30;100230.00;;;;5088730;28;20055;-76
2021/11/16 02:33:49;;;;;;;0.00;0.00;;;;;20.30;100235.00;;;;5088517;28;20139;-74
2021/11/16 02:36:20;;;;;;;0.00;0.00;;;;;20.30;100217.00;;;;5088171;28;20036;-77
2021/11/16 02:38:51;;;;;;;0.00;0.00;;;;;20.30;100214.00;;;;5088021;28;20051;-76
2021/11/16 02:41:22;;;;;;;1.60;0.47;;;;;20.20;100225.00;;;;5087579;28;20059;-75
2021/11/16 02:43:52;;;;;;;;;;;;;20.10;100242.00;;;;5088233;28;20044;-75
2021/11/16 02:46:21;;;;;;;0.00;0.00;;;;;20.00;100218.00;;;;5088127;28;19946;-75
2021/11/16 02:48:51;;;;;;;0.22;0.22;;;;;20.00;100221.00;;;;5087583;28;20055;-74
2021/11/16 02:51:20;;;;;;;0.85;0.63;;;;;20.00;100224.00;;;;5088066;28;20108;-74
2021/11/16 02:53:50;;;;;;;0.00;0.00;;;;;19.90;100219.00;;;;5087786;28;20495;-76
2021/11/16 02:56:19;;;;;;;0.10;0.10;;;;;19.90;100232.00;;;;5087781;28;20871;-76
2021/11/16 02:58:49;;;;;;;0.00;0.00;;;;;20.10;100225.00;;;;5069626;28;20077;-75
2021/11/16 03:01:20;;;;;;;0.00;0.00;;;;;20.00;100231.00;;;;5087523;28;20048;-74
2021/11/16 03:03:50;;;;;;;0.10;0.10;;;;;19.90;100225.00;;;;5087829;28;20048;-75
2021/11/16 03:06:20;;;;;;;0.32;0.32;;;;;19.80;100202.00;;;;5087785;28;20028;-76
2021/11/16 03:08:49;;;;;;;1.65;0.70;;;;;19.70;100210.00;;;;5087600;28;20044;-76
2021/11/16 03:11:19;;;;;;;0.43;0.43;;;;;19.70;100207.00;;;;5087890;28;20415;-74
2021/11/16 03:13:49;;;;;;;0.03;0.03;;;;;19.70;100222.00;;;;5087413;28;20040;-77
2021/11/16 03:16:21;;;;;;;0.00;0.00;;;;;19.60;100205.00;;;;5087404;28;20040;-76
2021/11/16 03:18:54;;;;;;;0.00;0.00;;;;;19.50;100221.00;;;;5087454;28;20044;-74
2021/11/16 03:21:25;;;;;;;0.08;0.08;;;;;19.50;100209.00;;;;5087700;28;20047;-74
2021/11/16 03:23:57;;;;;;;0.03;0.03;;;;;19.50;100221.00;;;;5087450;28;20522;-74
2021/11/16 03:26:28;;;;;;;0.00;0.00;;;;;19.50;100230.00;;;;5087052;28;20051;-75
2021/11/16 03:29:00;;;;;;;0.15;0.13;;;;;19.30;100210.00;;;;5086492;28;20440;-76
2021/11/16 03:31:40;;;;;;;0.00;0.00;;;;;19.30;100209.00;;;;5086475;28;20048;-77
2021/11/16 03:34:10;;;;;;;0.10;0.10;;;;;19.20;100211.00;;;;5087089;28;20540;-74
2021/11/16 03:36:39;;;;;;;5.55;2.13;;;;;19.30;100213.00;;;;5086892;28;20514;-75
2021/11/16 03:39:09;;;;;;;0.00;0.00;;;;;19.20;100221.00;;;;5088035;28;20055;-74
2021/11/16 03:41:39;;;;;;;0.10;0.10;;;;;19.20;100218.00;;;;5087023;28;20438;-74
2021/11/16 03:44:09;;;;;;;0.47;0.47;;;;;19.10;100193.00;;;;5086938;28;20040;-75
2021/11/16 03:46:39;;;;;;;0.50;0.50;;;;;19.10;100194.00;;;;5087023;28;20422;-75
2021/11/16 03:49:12;;;;;;;0.20;0.10;;;;;19.10;100190.00;;;;5086837;28;20094;-78
2021/11/16 03:51:44;;;;;;;0.00;0.00;;;;;19.10;100206.00;;;;5086758;28;20511;-76
2021/11/16 03:54:15;;;;;;;0.30;0.30;;;;;19.00;100191.00;;;;5086690;28;20047;-73
2021/11/16 03:56:46;;;;;;;0.52;0.45;;;;;19.00;100178.00;;;;5086462;28;20048;-77
2021/11/16 03:59:15;;;;;;;0.30;0.28;;;;;19.00;100204.00;;;;5086898;28;20044;-79
2021/11/16 04:01:45;;;;;;;0.00;0.00;;;;;19.00;100188.00;;;;5087241;28;20101;-79
2021/11/16 04:04:18;;;;;;;0.38;0.35;;;;;18.90;100202.00;;;;5086731;28;20510;-76
2021/11/16 04:06:48;;;;;;;0.00;0.00;;;;;18.90;100191.00;;;;5086257;28;20105;-77
2021/11/16 04:09:17;;;;;;;0.00;0.00;;;;;18.80;100196.00;;;;5086890;28;20052;-75
2021/11/16 04:11:46;;;;;;;2.00;1.45;;;;;18.80;100176.00;;;;5086423;28;20056;-76
2021/11/16 04:14:17;;;;;;;0.00;0.00;;;;;18.80;100174.00;;;;5086321;28;20533;-75
2021/11/16 04:16:52;;;;;;;0.00;0.00;;;;;18.80;100175.00;;;;5086458;28;20783;-74
2021/11/16 04:19:22;;;;;;;0.13;0.13;;;;;18.80;100168.00;;;;5086691;28;20044;-78
2021/11/16 04:21:51;;;;;;;0.00;0.00;;;;;18.70;100184.00;;;;5086873;28;20051;-77
2021/11/16 04:24:21;;;;;;;3.33;0.82;;;;;18.70;100172.00;;;;5087101;28;20051;-77
2021/11/16 04:26:50;;;;;;;0.00;0.00;;;;;18.70;100182.00;;;;5086841;28;20032;-77
2021/11/16 04:29:20;;;;;;;0.10;0.10;;;;;18.70;100175.00;;;;5086789;28;20491;-77
2021/11/16 04:31:49;;;;;;;0.03;0.03;;;;;18.70;100157.00;;;;5086583;28;20041;-77
2021/11/16 04:34:20;;;;;;;0.00;0.00;;;;;18.70;100172.00;;;;5086529;28;20226;-74
2021/11/16 04:36:50;;;;;;;0.00;0.00;;;;;18.60;100174.00;;;;5086649;28;20105;-73
2021/11/16 04:39:19;;;;;;;0.00;0.00;;;;;18.60;100165.00;;;;5086399;28;20048;-75
2021/11/16 04:41:49;;;;;;;0.38;0.28;;;;;18.50;100155.00;;;;5086490;28;20047;-78
2021/11/16 04:44:19;;;;;;;0.15;0.15;;;;;18.50;100166.00;;;;5069515;28;20134;-74
2021/11/16 04:46:49;;;;;;;0.05;0.05;;;;;18.50;100152.00;;;;5090909;28;20491;-75
2021/11/16 04:49:26;;;;;;;0.00;0.00;;;;;18.50;100171.00;;;;5072522;28;20109;-74
2021/11/16 05:03:01;;;;;;;0.00;0.00;;;;;18.50;100156.00;;;;5089825;28;20123;-79
2021/11/16 05:05:31;;;;;;;4.03;1.10;;;;;18.50;100135.00;;;;5090622;28;20047;-78
2021/11/16 05:08:01;;;;;;;0.00;0.00;;;;;18.50;100146.00;;;;5090036;28;20067;-75
2021/11/16 05:10:32;;;;;;;0.00;0.00;;;;;18.50;100158.00;;;;5090554;28;20036;-75
2021/11/16 05:13:01;;;;;;;2.63;1.02;;;;;18.50;100140.00;;;;5089984;28;20055;-74
2021/11/16 05:15:33;;;;;;;0.00;0.00;;;;;18.50;100162.00;;;;5089388;28;20555;-78
2021/11/16 05:18:04;;;;;;;0.00;0.00;;;;;18.40;100163.00;;;;5090047;28;20040;-76
2021/11/16 05:20:34;;;;;;;0.00;0.00;;;;;18.40;100159.00;;;;5089310;28;20040;-74
2021/11/16 05:23:03;;;;;;;1.45;0.25;;;;;18.40;100147.00;;;;5089709;28;20044;-77
2021/11/16 05:25:34;;;;;;;1.75;1.17;;;;;18.40;100135.00;;;;5071637;28;20127;-79
2021/11/16 05:28:06;;;;;;;0.10;0.10;;;;;18.40;100140.00;;;;5089302;28;20089;-78
2021/11/16 05:30:36;;;;;;;2.28;0.70;;;;;18.30;100123.00;;;;5090217;28;20052;-78
2021/11/16 05:33:06;;;;;;;0.00;0.00;;;;;18.30;100126.00;;;;5072525;28;20040;-80
2021/11/16 05:35:36;;;;;;;0.00;0.00;;;;;18.20;100147.00;;;;5089296;28;20452;-76
2021/11/16 05:38:05;;;;;;;0.00;0.00;;;;;18.20;100141.00;;;;5089219;28;20610;-75
2021/11/16 05:40:35;;;;;;;0.75;0.38;;;;;18.10;100149.00;;;;5089344;28;20044;-76
2021/11/16 05:43:05;;;;;;;0.00;0.00;;;;;18.10;100153.00;;;;5089239;28;20048;-75
2021/11/16 05:45:34;;;;;;;0.00;0.00;;;;;18.00;100145.00;;;;5089079;28;20044;-78
2021/11/16 05:48:04;;;;;;;0.00;0.00;;;;;18.00;100129.00;;;;5088667;28;20044;-75
2021/11/16 05:50:36;;;;;;;0.00;0.00;;;;;18.10;100121.00;;;;5089099;28;20085;-79
2021/11/16 05:53:08;;;;;;;0.00;0.00;;;;;18.00;100137.00;;;;5089138;28;20135;-78
2021/11/16 05:55:38;;;;;;;0.10;0.10;;;;;18.00;100139.00;;;;5088862;28;20089;-78
2021/11/16 05:58:08;;;;;;;0.00;0.00;;;;;18.00;100134.00;;;;5089178;28;20055;-74
2021/11/16 06:00:39;;;;;;;0.00;0.00;;;;;18.00;100148.00;;;;5088370;28;20040;-76
2021/11/16 06:03:11;;;;;;;0.00;0.00;;;;;18.00;100146.00;;;;5088688;28;20040;-75
2021/11/16 06:05:41;;;;;;;0.20;0.20;;;;;18.00;100148.00;;;;5088694;28;20036;-78
2021/11/16 06:08:20;;;;;;;4.68;0.30;;;;;18.00;100152.00;;;;5088701;28;20044;-78
2021/11/16 06:10:51;;;;;;;0.00;0.00;;;;;18.00;100143.00;;;;5088739;28;20048;-77
2021/11/16 06:13:20;;;;;;;0.10;0.10;;;;;18.10;100160.00;;;;5088446;28;20055;-77
2021/11/16 06:15:49;;;;;;;0.30;0.30;;;;;18.10;100146.00;;;;5087950;28;20433;-78
2021/11/16 06:18:23;;;;;;;0.00;0.00;;;;;18.10;100163.00;;;;5089311;28;20044;-80
2021/11/16 06:20:54;;;;;;;0.10;0.10;;;;;18.00;100160.00;;;;5088506;28;20036;-79
2021/11/16 06:23:24;;;;;;;1.98;1.15;;;;;18.10;100138.00;;;;5088455;28;20082;-76
2021/11/16 06:25:53;;;;;;;0.00;0.00;;;;;18.20;100147.00;;;;5088366;28;20491;-76
2021/11/16 06:28:23;;;;;;;4.30;0.47;;;;;18.10;100155.00;;;;5088250;28;20573;-78
2021/11/16 06:30:52;;;;;;;0.25;0.25;;;;;18.20;100136.00;;;;5088101;28;20044;-78
2021/11/16 06:33:25;;;;;;;0.30;0.30;;;;;18.20;100147.00;;;;5088099;28;20047;-77
2021/11/16 06:35:55;;;;;;;0.00;0.00;;;;;18.30;100131.00;;;;5088017;28;20044;-76
2021/11/16 06:38:24;;;;;;;0.00;0.00;;;;;18.30;100147.00;;;;5069783;28;20392;-75
2021/11/16 06:40:54;;;;;;;0.00;0.00;;;;;18.40;100147.00;;;;5088099;28;20107;-77
2021/11/16 06:43:24;;;;;;;0.10;0.05;;;;;18.40;100150.00;;;;5088219;28;20040;-75
2021/11/16 06:45:57;;;;;;;0.00;0.00;;;;;18.50;100138.00;;;;5087746;28;20094;-74
2021/11/16 06:48:27;;;;;;;0.00;0.00;;;;;18.50;100133.00;;;;5088464;28;20577;-76
2021/11/16 06:50:58;;;;;;;0.00;0.00;;;;;18.50;100153.00;;;;5069879;28;20043;-77
2021/11/16 06:53:29;;;;;;;;;;;;;18.50;100159.00;;;;5088168;28;20040;-76
2021/11/16 06:56:01;;;;;;;0.00;0.00;;;;;18.50;100155.00;;;;5087921;28;20313;-75
2021/11/16 06:58:34;;;;;;;0.00;0.00;;;;;18.50;100155.00;;;;5087858;28;20047;-76
2021/11/16 07:01:07;;;;;;;0.00;0.00;;;;;18.50;100151.00;;;;5087847;28;20461;-75
2021/11/16 07:03:37;;;;;;;0.00;0.00;;;;;18.50;100153.00;;;;5088329;28;20077;-75
2021/11/16 07:06:06;;;;;;;0.00;0.00;;;;;18.50;100160.00;;;;5087634;28;20047;-78
2021/11/16 07:08:37;;;;;;;0.00;0.00;;;;;18.50;100152.00;;;;5087588;28;20097;-74
2021/11/16 07:11:17;;;;;;;0.00;0.00;;;;;18.60;100141.00;;;;5087424;28;20040;-75
2021/11/16 07:14:06;;;;;;;0.00;0.00;;;;;18.50;100152.00;;;;5087368;28;20036;-75
2021/11/16 07:16:37;;;;;;;0.00;0.00;;;;;18.50;100139.00;;;;5087397;28;20094;-73
2021/11/16 07:19:10;;;;;;;0.00;0.00;;;;;18.50;100142.00;;;;5088105;28;20040;-79
2021/11/16 07:21:51;;;;;;;0.00;0.00;;;;;18.50;100128.00;;;;5087430;28;20039;-79
2021/11/16 07:24:25;;;;;;;0.00;0.00;;;;;18.40;100150.00;;;;5087496;28;20066;-76
2021/11/16 07:27:07;;;;;;;0.00;0.00;;;;;18.40;100156.00;;;;5087964;28;20055;-75
2021/11/16 07:29:44;;;;;;;0.00;0.00;;;;;18.40;100151.00;;;;5087615;28;20070;-75
2021/11/16 07:32:21;;;;;;;0.00;0.00;;;;;18.40;100159.00;;;;5086934;28;20048;-76
2021/11/16 07:34:52;;;;;;;0.00;0.00;;;;;18.40;100159.00;;;;5087131;28;20036;-77
2021/11/16 07:37:27;;;;;;;0.00;0.00;;;;;18.40;100159.00;;;;5087102;28;20052;-77
2021/11/16 07:39:59;;;;;;;0.00;0.00;;;;;18.50;100157.00;;;;5087537;28;20032;-75
2021/11/16 07:42:33;;;;;;;0.00;0.00;;;;;18.50;100166.00;;;;5087299;28;20177;-75
2021/11/16 07:45:12;;;;;;;0.00;0.00;;;;;18.50;100159.00;;;;5086570;28;20429;-75
2021/11/16 07:47:47;;;;;;;0.15;0.15;;;;;18.50;100171.00;;;;5068876;28;20044;-76
2021/11/16 07:50:33;;;;;;;0.10;0.10;;;;;18.50;100166.00;;;;5087438;28;20529;-80
2021/11/16 07:53:08;;;;;;;0.00;0.00;;;;;18.60;100172.00;;;;5086856;28;20032;-76
2021/11/16 07:55:40;;;;;;;0.00;0.00;;;;;18.50;100152.00;;;;5086967;28;20051;-74
2021/11/16 07:58:10;;;;;;;;;;;;;18.50;100176.00;;;;5069531;28;20046;-75
2021/11/16 08:00:44;;;;;;;0.00;0.00;;;;;18.50;100150.00;;;;5086755;28;20302;-74
2021/11/16 08:03:21;;;;;;;0.00;0.00;;;;;18.40;100147.00;;;;5086366;28;20075;-77
2021/11/16 08:11:22;;;;;;;5.50;0.47;;;;;18.20;100162.00;;;;5086978;28;20052;-76
2021/11/16 08:14:05;;;;;;;0.00;0.00;;;;;18.20;100181.00;;;;5087274;28;20561;-76
2021/11/16 08:16:57;;;;;;;0.00;0.00;;;;;18.20;100186.00;;;;5086270;28;20039;-75
2021/11/16 08:19:35;;;;;;;0.00;0.00;;;;;18.20;100193.00;;;;5090223;28;20044;-77
2021/11/16 08:22:10;;;;;;;0.00;0.00;;;;;18.20;100199.00;;;;5090502;28;20040;-75
2021/11/16 08:24:44;;;;;;;0.00;0.00;;;;;18.30;100182.00;;;;5090706;28;20051;-76
2021/11/16 08:27:17;;;;;;;0.15;0.15;;;;;18.40;100202.00;;;;5090718;28;20043;-78
2021/11/16 08:29:57;;;;;;;0.00;0.00;;;;;18.40;100180.00;;;;5090665;28;20032;-76
2021/11/16 08:32:34;;;;;;;0.00;0.00;;;;;18.50;100178.00;;;;5090988;28;20036;-76
2021/11/16 08:35:10;;;;;;;0.00;0.00;;;;;18.60;100190.00;;;;5090792;28;20050;-75
2021/11/16 08:37:44;;;;;;;0.00;0.00;;;;;18.60;100195.00;;;;5090467;28;20117;-75
2021/11/16 08:40:21;;;;;;;0.17;0.17;;;;;18.80;100208.00;;;;5090228;28;20048;-74
2021/11/16 08:43:01;;;;;;;0.17;0.10;;;;;19.00;100220.00;;;;5090692;28;20040;-78
2021/11/16 08:45:37;;;;;;;0.00;0.00;;;;;19.10;100217.00;;;;5089867;28;20048;-76
2021/11/16 08:48:09;;;;;;;2.83;1.13;;;;;19.20;100205.00;;;;5090989;28;20827;-77
2021/11/16 08:50:53;;;;;;;0.03;0.03;;;;;19.20;100197.00;;;;5090578;28;20048;-76
2021/11/16 08:53:25;;;;;;;0.00;0.00;;;;;19.30;100199.00;;;;5090282;28;20045;-78
2021/11/16 08:55:57;;;;;;;3.08;1.13;;;;;19.40;100223.00;;;;5071979;28;20036;-76
2021/11/16 08:58:29;;;;;;;1.85;1.13;;;;;19.50;100221.00;;;;5090071;28;20059;-78
2021/11/16 09:01:05;;;;;;;0.00;0.00;;;;;19.60;100209.00;;;;5090095;28;20044;-77
2021/11/16 09:03:44;;;;;;;0.57;0.10;;;;;19.70;100239.00;;;;5089642;28;20040;-76
2021/11/16 09:06:21;;;;;;;0.00;0.00;;;;;19.80;100231.00;;;;5089843;28;20089;-76
2021/11/16 09:09:10;;;;;;;0.20;0.17;;;;;19.90;100225.00;;;;5089823;28;20040;-78
2021/11/16 09:11:58;;;;;;;0.28;0.28;;;;;20.00;100252.00;;;;5089873;28;20063;-74
2021/11/16 09:14:29;;;;;;;1.05;0.68;;;;;20.20;100238.00;;;;5090130;28;20047;-74
2021/11/16 09:17:10;;;;;;;0.28;0.28;;;;;20.20;100252.00;;;;5089361;28;20063;-79
2021/11/16 09:19:40;;;;;;;2.53;1.23;;;;;20.30;100256.00;;;;5089661;28;20422;-74
2021/11/16 09:22:17;;;;;;;1.10;0.77;;;;;20.40;100238.00;;;;5090417;28;20085;-75
2021/11/16 09:24:51;;;;;;;0.70;0.60;;;;;20.50;100230.00;;;;5071862;28;20392;-76
2021/11/16 09:30:04;;;;;;;10.98;2.42;;;;;20.70;100252.00;;;;5088912;28;20595;-78
2021/11/16 09:32:34;;;;;;;12.32;2.75;;;;;20.80;100250.00;;;;5089307;28;20095;-76
2021/11/16 09:35:04;;;;;;;1.10;0.90;;;;;21.00;100249.00;;;;5071286;28;20063;-77
2021/11/16 09:37:38;;;;;;;0.08;0.08;;;;;21.20;100259.00;;;;5089375;28;20044;-77
2021/11/16 09:40:08;;;;;;;7.13;0.45;;;;;21.40;100259.00;;;;5072056;28;20043;-77
2021/11/16 09:42:40;;;;;;;0.32;0.20;;;;;21.60;100237.00;;;;5089659;28;20105;-77
2021/11/16 09:45:16;;;;;;;0.00;0.00;;;;;22.00;100255.00;;;;5090048;28;20136;-77
2021/11/16 09:47:46;;;;;;;7.32;2.00;;;;;22.40;100252.00;;;;5088849;28;20414;-76
2021/11/16 09:50:25;;;;;;;0.00;0.00;;;;;22.50;100270.00;;;;5088779;28;20426;-78
2021/11/16 09:52:59;;;;;;;0.35;0.32;;;;;22.70;100262.00;;;;5089067;28;20087;-77
2021/11/16 09:55:37;;;;;;;2.38;1.67;;;;;22.80;100251.00;;;;5088729;28;20080;-79
2021/11/16 09:58:18;;;;;;;6.85;3.05;;;;;22.90;100271.00;;;;5089110;28;20052;-78
2021/11/16 10:00:48;;;;;;;;;;;;;23.00;100268.00;;;;5089138;28;20155;-75
2021/11/16 10:03:26;;;;;;;0.00;0.00;;;;;23.20;100262.00;;;;5088639;28;19986;-76
2021/11/16 10:06:00;;;;;;;0.88;0.60;;;;;23.30;100274.00;;;;5088793;28;20097;-74
2021/11/16 10:08:31;;;;;;;6.38;0.93;;;;;23.40;100283.00;;;;5089484;28;20050;-75
2021/11/16 10:11:00;;;;;;;2.35;1.40;;;;;23.40;100274.00;;;;5088285;28;20419;-76
2021/11/16 10:13:31;;;;;;;0.00;0.00;;;;;23.40;100294.00;;;;5088643;28;20044;-77
2021/11/16 10:16:04;;;;;;;7.95;2.80;;;;;23.50;100297.00;;;;5088594;28;20050;-78
2021/11/16 10:18:37;;;;;;;0.00;0.00;;;;;23.50;100279.00;;;;5088490;28;20613;-76
2021/11/16 10:21:09;;;;;;;0.05;0.05;;;;;23.70;100290.00;;;;5088679;28;20047;-78
2021/11/16 10:23:47;;;;;;;12.20;3.78;;;;;23.70;100281.00;;;;5088353;28;20051;-78
2021/11/16 10:26:19;;;;;;;7.05;0.60;;;;;23.60;100273.00;;;;5088728;28;20040;-76
2021/11/16 10:28:49;;;;;;;0.10;0.10;;;;;23.80;100271.00;;;;5088110;28;20530;-78
2021/11/16 10:31:31;;;;;;;3.83;0.88;;;;;23.90;100277.00;;;;5088488;28;20047;-74
2021/11/16 10:34:02;;;;;;;0.00;0.00;;;;;24.00;100288.00;;;;5070441;28;20040;-76
2021/11/16 10:36:32;;;;;;;0.00;0.00;;;;;24.40;100267.00;;;;5088284;28;20043;-75
2021/11/16 10:39:03;;;;;;;0.00;0.00;;;;;24.90;100270.00;;;;5088080;28;20044;-76
2021/11/16 10:41:35;;;;;;;1.17;0.45;;;;;25.50;100274.00;;;;5069463;28;20067;-80
2021/11/16 10:44:12;;;;;;;0.00;0.00;;;;;25.50;100277.00;;;;5087674;28;20540;-77
2021/11/16 10:46:45;;;;;;;0.30;0.30;;;;;25.20;100281.00;;;;5087946;28;20101;-78
2021/11/16 10:49:19;;;;;;;0.00;0.00;;;;;25.30;100270.00;;;;5088104;28;20043;-73
2021/11/16 10:51:49;;;;;;;3.00;1.33;;;;;25.20;100222.00;;;;5088029;28;20481;-75
2021/11/16 10:54:19;;;;;;;0.28;0.28;;;;;30.40;100246.00;;;;5087605;28;20062;-75
2021/11/16 10:56:58;;;;;;;0.15;0.15;;;;;31.80;100205.00;;;;5087781;28;20078;-76
2021/11/16 10:59:32;;;;;;;0.00;0.00;;;;;33.10;100046.00;;;;5087783;28;20439;-74
2021/11/16 11:02:02;;;;;;;0.00;0.00;;;;;33.30;100042.00;;;;5087822;28;20043;-75
2021/11/16 11:04:44;;;;;;;0.08;0.08;;;;;35.70;100036.00;;;;5087590;28;20853;-81
2021/11/16 11:07:14;;;;;;;0.20;0.20;;;;;36.00;100239.00;;;;5087520;28;20043;-77
2021/11/16 11:09:44;;;;;;;0.80;0.43;;;;;33.70;100205.00;;;;5087293;28;20051;-77
2021/11/16 11:12:27;;;;;;;5.18;2.75;;;;;32.50;100026.00;;;;5087117;28;20048;-79
2021/11/16 11:14:57;;;;;;;0.00;0.00;;;;;34.80;100046.00;;;;5087328;28;20503;-78
2021/11/16 11:17:38;;;;;;;0.00;0.00;;;;;35.40;100052.00;;;;5087614;28;20052;-78
2021/11/16 11:20:13;;;;;;;0.00;0.00;;;;;33.70;100048.00;;;;5087375;28;20044;-75
2021/11/16 11:22:44;;;;;;;0.00;0.00;;;;;30.30;100262.00;;;;5088141;28;20047;-80
2021/11/16 11:28:11;;;;;;;0.60;0.47;;;;;32.40;100049.00;;;;5087449;28;20055;-80
2021/11/16 11:30:41;;;;;;;0.08;0.08;;;;;33.00;100040.00;;;;5087053;28;20051;-76
2021/11/16 11:33:10;;;;;;;33.13;1.58;;;;;33.60;100045.00;;;;5086579;28;20513;-78
2021/11/16 11:35:40;;;;;;;0.00;0.00;;;;;34.00;100069.00;;;;5069333;28;20909;-82
2021/11/16 11:38:13;;;;;;;7.73;0.87;;;;;33.60;100096.00;;;;5087174;28;20080;-78
2021/11/16 11:40:43;;;;;;;0.57;0.52;;;;;33.40;100231.00;;;;5086887;28;20396;-78
2021/11/16 11:43:20;;;;;;;0.68;0.68;;;;;33.30;100194.00;;;;5087189;28;20403;-79
2021/11/16 11:45:50;;;;;;;1.13;1.02;;;;;32.80;100174.00;;;;5087169;28;20048;-82
2021/11/16 11:48:26;;;;;;;0.20;0.20;;;;;32.80;100157.00;;;;5087195;28;20639;-77
2021/11/16 11:51:11;;;;;;;0.00;0.00;;;;;32.60;100213.00;;;;5086922;28;20040;-77
2021/11/16 11:53:41;;;;;;;0.10;0.10;;;;;31.60;100274.00;;;;5086365;28;20044;-77
2021/11/16 11:56:15;;;;;;;0.10;0.10;;;;;30.50;100274.00;;;;5087003;28;20040;-78
2021/11/16 11:58:45;;;;;;;0.45;0.40;;;;;30.10;100288.00;;;;5086515;28;20089;-82
2021/11/16 12:01:17;;;;;;;2.42;0.28;;;;;29.20;100253.00;;;;5086546;28;20036;-78
2021/11/16 12:03:48;;;;;;;0.15;0.13;;;;;29.30;100236.00;;;;5086893;28;20078;-76
2021/11/16 12:06:18;;;;;;;0.03;0.03;;;;;30.10;100237.00;;;;5087094;28;20048;-79
2021/11/16 12:08:48;;;;;;;1.90;0.40;;;;;28.90;100244.00;;;;5086614;28;20464;-79
2021/11/16 12:11:21;;;;;;;1.15;0.55;;;;;27.60;100247.00;;;;5086490;28;20051;-79
2021/11/16 12:14:00;;;;;;;0.00;0.00;;;;;26.50;100241.00;;;;5086025;28;20072;-76
2021/11/16 12:16:50;;;;;;;0.20;0.20;;;;;25.90;100249.00;;;;5086594;28;20048;-78
2021/11/16 12:19:21;;;;;;;0.03;0.03;;;;;25.30;100238.00;;;;5068332;28;20052;-79
2021/11/16 12:21:51;;;;;;;0.65;0.65;;;;;25.10;100240.00;;;;5086597;28;20431;-78
2021/11/16 12:24:31;;;;;;;0.27;0.10;;;;;25.20;100245.00;;;;5086158;28;20043;-78
2021/11/16 12:27:07;;;;;;;0.35;0.35;;;;;25.50;100266.00;;;;5086881;28;20036;-79
2021/11/16 12:29:44;;;;;;;0.30;0.30;;;;;26.00;100205.00;;;;5085723;28;20032;-75
2021/11/16 12:32:22;;;;;;;0.52;0.52;;;;;27.10;100211.00;;;;5086596;28;20410;-74
2021/11/16 12:35:04;;;;;;;2.45;0.38;;;;;29.00;100182.00;;;;5086062;28;20525;-75
2021/11/16 12:37:43;;;;;;;0.10;0.10;;;;;29.50;100220.00;;;;5086500;28;20040;-75
2021/11/16 12:40:41;;;;;;;0.75;0.75;;;;;29.90;100157.00;;;;5086422;28;20055;-75
2021/11/16 12:43:21;;;;;;;0.20;0.10;;;;;30.50;100198.00;;;;5085479;28;20060;-75
2021/11/16 12:45:59;;;;;;;1.20;0.63;;;;;30.70;100212.00;;;;5084778;28;20128;-74
2021/11/16 12:48:51;;;;;;;0.15;0.15;;;;;29.70;100200.00;;;;5085562;28;20036;-75
2021/11/16 12:51:54;;;;;;;0.70;0.70;;;;;29.60;100237.00;;;;5086359;28;20111;-75
2021/11/16 12:54:34;;;;;;;0.50;0.22;;;;;28.90;100234.00;;;;5086292;28;20503;-75
2021/11/16 12:57:10;;;;;;;0.60;0.60;;;;;28.40;100238.00;;;;5086653;28;20043;-75
2021/11/16 12:59:44;;;;;;;0.00;0.00;;;;;28.00;100249.00;;;;5086731;28;20105;-75
2021/11/16 13:02:21;;;;;;;13.52;2.17;;;;;27.40;100227.00;;;;5084933;28;20040;-74
2021/11/16 13:04:55;;;;;;;0.52;0.38;;;;;27.50;100213.00;;;;5086788;28;20089;-74